Time;durP1;ratioP1;P1;durP2;ratioP2;P2;SDS_P1;SDS_P2;PMS_P1;PMS_P2;Temp;Humidity;BMP_temperature;BMP_pressure;BME280_temperature;BME280_humidity;BME280_pressure;Samples;Min_cycle;Max_cycle;Signal;HPM_P1;HPM_P2
2022/12/01 00:01:32;;;;;;;18.63;10.07;;;26.60;99.90;;;;;;5155146;27;20494;-63
2022/12/01 00:03:58;;;;;;;15.13;10.40;;;26.50;99.90;;;;;;5155460;27;20498;-63
2022/12/01 00:06:25;;;;;;;19.17;10.82;;;26.50;99.90;;;;;;5155155;27;20046;-63
2022/12/01 00:11:21;;;;;;;17.83;9.77;;;26.40;99.90;;;;;;5134464;27;20387;-63
2022/12/01 00:13:47;;;;;;;21.55;11.82;;;26.50;99.90;;;;;;5134449;27;20028;-63
2022/12/01 00:16:15;;;;;;;28.85;13.73;;;26.50;99.90;;;;;;5134556;27;20028;-63
2022/12/01 00:18:43;;;;;;;31.90;14.05;;;26.60;99.90;;;;;;5134463;27;20061;-63
2022/12/01 00:21:18;;;;;;;21.27;11.80;;;26.50;99.90;;;;;;5134120;28;20399;-63
2022/12/01 00:23:50;;;;;;;17.70;11.70;;;26.60;99.90;;;;;;5134418;28;20102;-63
2022/12/01 00:26:18;;;;;;;16.48;11.13;;;26.70;99.90;;;;;;5134276;28;20021;-62
2022/12/01 00:28:49;;;;;;;19.65;10.27;;;26.70;99.90;;;;;;5134330;28;20031;-63
2022/12/01 00:31:16;;;;;;;18.70;10.83;;;26.80;99.90;;;;;;5134422;28;20026;-63
2022/12/01 00:33:42;;;;;;;21.67;13.00;;;26.90;99.90;;;;;;5134261;28;20417;-63
2022/12/01 00:36:09;;;;;;;21.65;14.95;;;27.00;99.90;;;;;;5134253;28;20395;-63
2022/12/01 00:38:36;;;;;;;26.00;16.45;;;27.00;99.90;;;;;;5134172;28;20033;-63
2022/12/01 00:41:03;;;;;;;19.20;14.00;;;27.10;99.90;;;;;;5133908;27;20027;-63
2022/12/01 00:43:30;;;;;;;22.40;14.82;;;27.20;99.90;;;;;;5137056;27;20051;-63
2022/12/01 00:45:59;;;;;;;18.65;14.50;;;27.30;99.90;;;;;;5138455;27;20098;-63
2022/12/01 00:48:25;;;;;;;20.58;15.27;;;27.30;99.90;;;;;;5138113;27;20019;-62
2022/12/01 00:50:53;;;;;;;26.65;15.00;;;27.40;99.90;;;;;;5138172;27;20054;-63
2022/12/01 00:53:20;;;;;;;23.67;15.13;;;27.40;99.90;;;;;;5138115;27;20015;-63
2022/12/01 00:55:46;;;;;;;26.60;16.50;;;27.50;99.90;;;;;;5138210;27;20387;-62
2022/12/01 00:58:13;;;;;;;33.90;16.33;;;27.50;99.90;;;;;;5138137;27;20106;-63
2022/12/01 01:00:41;;;;;;;23.27;14.48;;;27.60;99.90;;;;;;5138159;27;20109;-63
2022/12/01 01:03:08;;;;;;;19.23;13.82;;;27.60;99.90;;;;;;5138118;27;20034;-62
2022/12/01 01:05:36;;;;;;;22.08;13.63;;;27.70;99.90;;;;;;5138000;27;20149;-63
2022/12/01 01:08:07;;;;;;;49.67;33.53;;;27.70;99.90;;;;;;5137886;27;20432;-63
2022/12/01 01:10:38;;;;;;;40.10;29.85;;;27.80;99.90;;;;;;5137795;27;20050;-62
2022/12/01 01:13:07;;;;;;;24.42;16.13;;;27.80;99.90;;;;;;5138075;27;20547;-63
2022/12/01 01:15:34;;;;;;;20.27;15.57;;;27.90;99.90;;;;;;5138179;27;20462;-62
2022/12/01 01:18:01;;;;;;;19.30;14.55;;;27.90;99.90;;;;;;5137491;27;20483;-62
2022/12/01 01:20:28;;;;;;;14.93;13.32;;;28.00;99.90;;;;;;5137318;27;20051;-63
2022/12/01 01:22:54;;;;;;;36.85;25.25;;;28.00;99.90;;;;;;5137556;27;20464;-62
2022/12/01 01:25:21;;;;;;;28.58;20.88;;;28.00;99.90;;;;;;5137264;27;20373;-62
2022/12/01 01:27:48;;;;;;;23.42;15.68;;;28.00;99.90;;;;;;5137871;27;20429;-62
2022/12/01 01:30:15;;;;;;;19.83;15.70;;;28.00;99.90;;;;;;5137339;27;20468;-62
2022/12/01 01:32:41;;;;;;;22.98;15.43;;;28.10;99.90;;;;;;5137095;27;20020;-62
2022/12/01 01:35:08;;;;;;;17.88;14.27;;;28.10;99.90;;;;;;5137374;27;20015;-63
2022/12/01 01:37:34;;;;;;;20.17;15.52;;;28.10;99.90;;;;;;5137150;27;20023;-61
2022/12/01 01:40:01;;;;;;;25.17;17.25;;;28.10;99.90;;;;;;5136989;27;20019;-62
2022/12/01 01:42:27;;;;;;;20.98;16.35;;;28.20;99.90;;;;;;5136734;27;20027;-60
2022/12/01 01:44:56;;;;;;;21.65;17.10;;;28.30;99.90;;;;;;5137226;27;20375;-62
2022/12/01 01:47:29;;;;;;;22.35;17.38;;;28.40;99.90;;;;;;5137010;27;20067;-63
2022/12/01 01:50:04;;;;;;;22.17;18.98;;;28.50;99.90;;;;;;5137143;27;20050;-63
2022/12/01 01:52:31;;;;;;;26.10;19.35;;;28.60;99.90;;;;;;5136790;27;20027;-63
2022/12/01 01:54:57;;;;;;;25.25;18.40;;;28.60;99.90;;;;;;5136691;27;20419;-62
2022/12/01 01:57:28;;;;;;;83.50;51.13;;;28.60;99.90;;;;;;5137083;27;20487;-63
2022/12/01 02:00:00;;;;;;;24.52;18.40;;;28.70;99.90;;;;;;5136857;27;20023;-61
2022/12/01 02:02:27;;;;;;;23.00;18.20;;;28.70;99.90;;;;;;5136875;27;20023;-63
2022/12/01 02:04:59;;;;;;;34.30;25.52;;;28.70;99.90;;;;;;5136663;27;20030;-63
2022/12/01 02:07:26;;;;;;;27.38;22.33;;;28.70;99.90;;;;;;5136569;27;20019;-63
2022/12/01 02:09:53;;;;;;;32.88;27.35;;;28.80;99.90;;;;;;5118231;27;20027;-61
2022/12/01 02:12:23;;;;;;;37.63;31.20;;;28.80;99.90;;;;;;5136694;27;20517;-57
2022/12/01 02:14:59;;;;;;;123.82;81.28;;;28.80;99.90;;;;;;5136455;27;20035;-58
2022/12/01 02:17:28;;;;;;;44.45;35.83;;;28.90;99.90;;;;;;5136671;27;20029;-57
2022/12/01 02:20:13;;;;;;;114.25;91.25;;;29.00;99.90;;;;;;5136244;27;20383;-58
2022/12/01 02:22:41;;;;;;;127.38;88.15;;;29.00;99.90;;;;;;5136290;27;20198;-58
2022/12/01 02:25:20;;;;;;;92.60;70.57;;;28.90;99.90;;;;;;5136400;27;20027;-58
2022/12/01 02:30:25;;;;;;;160.52;120.13;;;29.00;99.90;;;;;;5136386;27;20030;-58
2022/12/01 02:33:01;;;;;;;277.55;224.13;;;29.00;99.90;;;;;;5136324;27;20487;-59
2022/12/01 02:35:33;;;;;;;522.13;378.33;;;29.10;99.90;;;;;;5136218;27;20439;-57
2022/12/01 02:38:04;;;;;;;51.60;40.55;;;29.20;99.90;;;;;;5135950;27;20019;-59
2022/12/01 02:40:43;;;;;;;51.67;38.83;;;29.30;99.90;;;;;;5135935;27;20084;-59
2022/12/01 02:43:13;;;;;;;52.85;38.03;;;29.40;99.90;;;;;;5135782;27;20027;-60
2022/12/01 02:46:02;;;;;;;48.10;37.55;;;29.30;99.90;;;;;;5136051;27;20015;-59
2022/12/01 02:48:30;;;;;;;51.22;40.45;;;29.30;99.90;;;;;;5123183;27;20456;-54
2022/12/01 02:51:06;;;;;;;47.95;36.67;;;29.10;99.90;;;;;;5135964;27;20024;-54
2022/12/01 02:53:34;;;;;;;51.72;38.83;;;28.90;99.90;;;;;;5135964;27;20019;-56
2022/12/01 02:56:04;;;;;;;55.72;40.72;;;28.70;99.90;;;;;;5135725;27;20060;-57
2022/12/01 02:58:31;;;;;;;59.58;43.15;;;28.60;99.90;;;;;;5135850;27;20048;-54
2022/12/01 03:01:03;;;;;;;56.53;40.38;;;28.50;99.90;;;;;;5135568;27;20101;-55
2022/12/01 03:03:37;;;;;;;55.25;40.65;;;28.50;99.90;;;;;;5135528;27;20027;-60
2022/12/01 03:06:13;;;;;;;52.05;39.83;;;28.50;99.90;;;;;;5134730;27;20361;-55
2022/12/01 03:08:48;;;;;;;55.55;39.15;;;28.50;99.90;;;;;;5135376;27;20046;-57
2022/12/01 03:11:26;;;;;;;54.00;38.53;;;28.50;99.90;;;;;;5135804;27;20375;-59
2022/12/01 03:14:03;;;;;;;58.83;40.15;;;28.60;99.90;;;;;;5135336;27;20020;-58
2022/12/01 03:16:37;;;;;;;57.65;40.83;;;28.70;99.90;;;;;;5135620;27;20031;-58
2022/12/01 03:19:13;;;;;;;50.60;39.95;;;28.80;99.90;;;;;;5131714;27;20103;-57
2022/12/01 03:21:49;;;;;;;48.30;36.38;;;28.90;99.90;;;;;;5128072;27;20043;-54
2022/12/01 03:24:22;;;;;;;50.78;35.65;;;29.00;99.90;;;;;;5126065;27;20102;-55
2022/12/01 03:26:55;;;;;;;51.25;35.95;;;29.20;99.90;;;;;;5124208;27;20077;-58
2022/12/01 03:29:27;;;;;;;43.70;34.53;;;29.30;99.90;;;;;;5123036;27;20039;-51
2022/12/01 03:31:59;;;;;;;38.78;32.50;;;29.50;99.90;;;;;;5122169;27;20020;-58
2022/12/01 03:34:41;;;;;;;37.45;28.23;;;29.50;99.90;;;;;;5125457;27;20027;-57
2022/12/01 03:37:13;;;;;;;44.20;31.95;;;29.60;99.90;;;;;;5119837;27;20085;-58
2022/12/01 03:39:41;;;;;;;38.88;31.60;;;29.60;99.90;;;;;;5117649;27;20032;-56
2022/12/01 03:42:12;;;;;;;44.33;33.05;;;29.60;99.90;;;;;;5124345;27;20103;-57
2022/12/01 03:44:47;;;;;;;41.65;30.73;;;29.60;99.90;;;;;;5123115;27;20020;-56
2022/12/01 03:47:21;;;;;;;109.50;82.35;;;29.70;99.90;;;;;;5122762;27;20026;-59
2022/12/01 03:49:50;;;;;;;42.13;34.08;;;29.80;99.90;;;;;;5122772;27;20034;-58
2022/12/01 03:52:22;;;;;;;91.88;71.15;;;30.00;99.90;;;;;;5130253;27;20023;-59
2022/12/01 03:55:04;;;;;;;45.55;34.08;;;30.00;99.90;;;;;;5118320;27;20023;-59
2022/12/01 03:57:37;;;;;;;;;;;30.10;99.90;;;;;;5116852;27;20027;-61
2022/12/01 04:00:05;;;;;;;55.85;38.22;;;30.10;99.90;;;;;;5117330;27;19903;-61
2022/12/01 04:02:32;;;;;;;43.40;34.67;;;30.30;99.90;;;;;;5122234;27;20016;-60
2022/12/01 04:04:58;;;;;;;45.42;34.80;;;30.30;99.90;;;;;;5123942;27;20102;-58
2022/12/01 04:07:27;;;;;;;39.80;29.70;;;30.30;99.90;;;;;;5123384;27;20057;-59
2022/12/01 04:09:54;;;;;;;41.50;32.65;;;30.30;99.90;;;;;;5122058;27;20012;-59
2022/12/01 04:14:50;;;;;;;76.30;49.90;;;30.30;99.90;;;;;;5123980;27;20114;-57
2022/12/01 04:17:16;;;;;;;41.88;31.60;;;30.40;99.90;;;;;;5121744;27;20079;-54
2022/12/01 04:19:43;;;;;;;44.55;32.40;;;30.40;99.90;;;;;;5123143;27;20026;-56
2022/12/01 04:22:09;;;;;;;40.85;31.63;;;30.40;99.90;;;;;;5126828;28;20062;-61
2022/12/01 04:24:36;;;;;;;39.10;29.83;;;30.40;99.90;;;;;;5125721;28;20114;-58
2022/12/01 04:27:03;;;;;;;38.05;29.17;;;30.30;99.90;;;;;;5123566;28;20149;-58
2022/12/01 04:29:32;;;;;;;48.97;31.90;;;30.40;99.90;;;;;;5131438;28;20072;-59
2022/12/01 04:31:59;;;;;;;34.88;28.65;;;30.40;99.90;;;;;;5130977;28;20011;-61
2022/12/01 04:34:28;;;;;;;127.40;87.82;;;30.50;99.90;;;;;;5130942;28;20027;-59
2022/12/01 04:36:55;;;;;;;89.75;61.95;;;30.60;99.90;;;;;;5130066;28;20022;-59
2022/12/01 04:39:21;;;;;;;41.42;29.90;;;30.60;99.90;;;;;;5121156;28;20046;-60
2022/12/01 04:41:48;;;;;;;40.75;26.63;;;30.70;99.90;;;;;;5122610;28;20023;-59
2022/12/01 04:44:15;;;;;;;71.35;38.35;;;30.80;99.90;;;;;;5122018;28;20024;-57
2022/12/01 04:46:41;;;;;;;43.67;30.15;;;30.90;99.90;;;;;;5118220;28;20020;-61
2022/12/01 04:49:08;;;;;;;40.17;28.27;;;30.90;99.90;;;;;;5120310;28;20036;-59
2022/12/01 04:51:35;;;;;;;35.63;27.17;;;30.90;99.90;;;;;;5119748;28;20031;-57
2022/12/01 04:54:02;;;;;;;33.45;26.33;;;30.90;99.90;;;;;;5122655;28;20665;-60
2022/12/01 04:56:28;;;;;;;34.65;25.52;;;30.90;99.90;;;;;;5120775;28;20064;-60
2022/12/01 04:58:55;;;;;;;54.17;30.52;;;30.90;99.90;;;;;;5121258;28;20036;-59
2022/12/01 05:01:22;;;;;;;36.20;25.48;;;30.90;99.90;;;;;;5121914;28;20024;-59
2022/12/01 05:03:48;;;;;;;43.20;26.70;;;31.00;99.90;;;;;;5120509;28;20007;-60
2022/12/01 05:06:18;;;;;;;28.25;22.35;;;31.10;99.90;;;;;;5123565;28;20023;-59
2022/12/01 05:08:44;;;;;;;29.38;23.02;;;31.20;99.90;;;;;;5122249;28;20019;-59
2022/12/01 05:11:12;;;;;;;26.52;21.38;;;31.20;99.90;;;;;;5121471;28;20035;-60
2022/12/01 05:13:41;;;;;;;24.17;20.10;;;31.20;99.90;;;;;;5120092;28;20434;-60
2022/12/01 05:16:14;;;;;;;26.08;19.45;;;31.40;99.90;;;;;;5120895;28;20097;-60
2022/12/01 05:18:41;;;;;;;32.53;23.63;;;31.40;99.90;;;;;;5123251;28;20046;-60
2022/12/01 05:21:10;;;;;;;28.63;21.85;;;31.40;99.90;;;;;;5123300;28;20120;-60
2022/12/01 05:23:38;;;;;;;29.20;22.13;;;31.50;99.90;;;;;;5130536;28;20026;-60
2022/12/01 05:26:07;;;;;;;29.80;22.45;;;31.50;99.90;;;;;;5130245;28;20226;-60
2022/12/01 05:28:34;;;;;;;32.20;22.55;;;31.50;99.90;;;;;;5131629;27;20383;-59
2022/12/01 05:31:01;;;;;;;33.08;24.25;;;31.50;99.90;;;;;;5130030;27;20046;-60
2022/12/01 05:33:28;;;;;;;30.00;24.08;;;31.50;99.90;;;;;;5125863;27;20015;-56
2022/12/01 05:35:55;;;;;;;31.70;24.17;;;31.50;99.90;;;;;;5126580;27;20012;-60
2022/12/01 05:38:21;;;;;;;28.88;22.50;;;31.40;99.90;;;;;;5115623;27;20027;-61
2022/12/01 05:40:53;;;;;;;30.10;22.40;;;31.30;99.90;;;;;;5115488;28;20106;-60
2022/12/01 05:43:21;;;;;;;28.48;21.15;;;31.30;99.90;;;;;;5115829;28;20068;-60
2022/12/01 05:45:49;;;;;;;53.50;30.30;;;31.40;99.90;;;;;;5131888;27;20450;-60
2022/12/01 05:48:16;;;;;;;26.00;20.73;;;31.60;99.90;;;;;;5126853;27;20020;-59
2022/12/01 05:50:43;;;;;;;27.70;21.13;;;31.70;99.90;;;;;;5124787;27;20197;-59
2022/12/01 05:53:11;;;;;;;21.48;18.70;;;31.70;99.90;;;;;;5132750;27;20360;-59
2022/12/01 05:55:38;;;;;;;22.33;19.00;;;31.70;99.90;;;;;;5124695;27;20040;-59
2022/12/01 05:58:05;;;;;;;23.67;17.80;;;31.80;99.90;;;;;;5126373;27;20597;-59
2022/12/01 06:00:32;;;;;;;24.80;18.25;;;31.70;99.90;;;;;;5125813;27;20051;-59
2022/12/01 06:02:58;;;;;;;25.05;18.30;;;31.70;99.90;;;;;;5124510;27;20023;-60
2022/12/01 06:05:25;;;;;;;19.92;16.08;;;31.60;99.90;;;;;;5126308;27;20098;-59
2022/12/01 06:07:51;;;;;;;23.33;19.02;;;31.50;99.90;;;;;;5125348;27;20023;-59
2022/12/01 06:10:18;;;;;;;25.88;19.65;;;31.50;99.90;;;;;;5124363;27;20019;-60
2022/12/01 06:12:44;;;;;;;29.02;21.90;;;31.50;99.90;;;;;;5124346;27;20081;-60
2022/12/01 06:15:12;;;;;;;29.05;20.90;;;31.40;99.90;;;;;;5128899;27;20031;-60
2022/12/01 06:17:39;;;;;;;27.88;21.27;;;31.20;99.90;;;;;;5127676;27;20051;-59
2022/12/01 06:20:07;;;;;;;29.77;20.67;;;31.00;99.90;;;;;;5125361;27;20118;-59
2022/12/01 06:22:34;;;;;;;26.77;19.05;;;30.80;99.90;;;;;;5123612;27;20114;-59
2022/12/01 06:25:00;;;;;;;26.80;20.40;;;30.70;99.90;;;;;;5124705;27;20020;-59
2022/12/01 06:27:27;;;;;;;24.05;17.95;;;30.90;99.90;;;;;;5125400;27;20042;-59
2022/12/01 06:29:54;;;;;;;25.10;18.33;;;31.00;99.90;;;;;;5123531;27;20022;-60
2022/12/01 06:32:20;;;;;;;26.80;19.88;;;31.10;99.90;;;;;;5124556;27;20045;-59
2022/12/01 06:34:46;;;;;;;28.80;20.65;;;31.20;99.90;;;;;;5124928;27;20452;-59
2022/12/01 06:37:14;;;;;;;30.95;22.50;;;31.20;99.90;;;;;;5131460;27;20106;-57
2022/12/01 06:39:41;;;;;;;28.50;20.40;;;31.30;99.90;;;;;;5125014;27;20435;-59
2022/12/01 06:42:08;;;;;;;55.65;29.50;;;31.30;99.90;;;;;;5123645;27;20153;-60
2022/12/01 06:44:37;;;;;;;33.85;23.42;;;31.20;99.90;;;;;;5124046;27;20011;-59
2022/12/01 06:47:04;;;;;;;33.33;24.00;;;31.10;99.90;;;;;;5132230;27;20098;-59
2022/12/01 06:49:31;;;;;;;31.13;23.65;;;31.00;99.90;;;;;;5123591;27;20032;-60
2022/12/01 06:51:57;;;;;;;35.83;25.13;;;31.00;99.90;;;;;;5125304;27;20047;-60
2022/12/01 06:54:24;;;;;;;34.38;22.27;;;30.90;99.90;;;;;;5129789;27;20104;-59
2022/12/01 06:56:50;;;;;;;54.13;28.48;;;30.80;99.90;;;;;;5126830;27;20490;-56
2022/12/01 06:59:17;;;;;;;61.45;31.08;;;30.60;99.90;;;;;;5124777;27;20019;-58
2022/12/01 07:01:43;;;;;;;115.32;44.25;;;30.40;99.90;;;;;;5150582;22;20370;-60
2022/12/01 07:04:10;;;;;;;60.65;32.40;;;29.90;99.90;;;;;;5075154;28;20040;-61
2022/12/01 07:06:36;;;;;;;39.33;23.52;;;29.00;99.90;;;;;;5075760;28;20024;-61
2022/12/01 07:09:03;;;;;;;45.65;26.90;;;28.80;99.90;;;;;;5075500;28;20399;-55
2022/12/01 07:11:31;;;;;;;34.67;24.83;;;28.40;99.90;;;;;;5075398;28;20059;-59
2022/12/01 07:14:00;;;;;;;32.60;21.55;;;28.30;99.90;;;;;;5075383;28;20021;-59
2022/12/01 07:16:26;;;;;;;29.40;22.05;;;28.50;99.90;;;;;;5074366;28;20020;-60
2022/12/01 07:18:53;;;;;;;27.73;20.63;;;28.50;99.90;;;;;;5074299;28;20032;-57
2022/12/01 07:21:19;;;;;;;16.15;13.43;;;28.50;99.90;;;;;;5074183;28;20060;-59
2022/12/01 07:26:17;;;;;;;18.40;13.43;;;28.00;99.90;;;;;;5074178;28;20024;-58
2022/12/01 07:28:44;;;;;;;14.15;10.43;;;27.90;99.90;;;;;;5074495;28;20027;-60
2022/12/01 07:31:14;;;;;;;17.95;12.07;;;27.70;99.90;;;;;;5074008;28;20115;-60
2022/12/01 07:33:41;;;;;;;13.35;10.02;;;27.70;99.90;;;;;;5073822;28;20389;-61
2022/12/01 07:36:10;;;;;;;15.85;10.60;;;27.70;99.90;;;;;;5073983;28;20039;-61
2022/12/01 07:38:38;;;;;;;15.35;10.77;;;27.70;99.90;;;;;;5074221;28;20103;-60
2022/12/01 07:41:09;;;;;;;16.20;12.55;;;27.70;99.90;;;;;;5073739;28;20082;-61
2022/12/01 07:43:36;;;;;;;17.93;12.47;;;27.50;99.90;;;;;;5074289;28;20476;-60
2022/12/01 07:46:24;;;;;;;18.83;13.07;;;27.60;99.90;;;;;;5073773;28;20435;-60
2022/12/01 07:48:52;;;;;;;23.92;15.00;;;27.70;99.90;;;;;;5073684;28;20115;-57
2022/12/01 07:51:18;;;;;;;23.25;14.60;;;27.90;99.90;;;;;;5086710;28;20057;-60
2022/12/01 07:53:48;;;;;;;19.35;13.45;;;27.90;99.90;;;;;;5109310;28;20035;-56
2022/12/01 07:56:15;;;;;;;19.60;14.38;;;27.90;99.90;;;;;;5114765;28;20032;-61
2022/12/01 07:58:42;;;;;;;18.77;13.80;;;28.10;99.90;;;;;;5114499;28;20019;-60
2022/12/01 08:01:14;;;;;;;24.05;18.88;;;28.20;99.90;;;;;;5114190;28;20020;-60
2022/12/01 08:03:41;;;;;;;25.08;17.98;;;28.20;99.90;;;;;;5114158;28;20035;-60
2022/12/01 08:06:08;;;;;;;24.00;16.88;;;28.10;99.90;;;;;;5114408;28;20076;-59
2022/12/01 08:08:37;;;;;;;22.67;17.15;;;28.10;99.90;;;;;;5107861;28;20027;-60
2022/12/01 08:11:06;;;;;;;27.70;18.45;;;28.20;99.90;;;;;;5094397;28;20032;-61
2022/12/01 08:13:33;;;;;;;25.67;20.02;;;28.20;99.90;;;;;;5092878;28;20026;-58
2022/12/01 08:16:03;;;;;;;25.98;19.70;;;28.20;99.90;;;;;;5102646;28;20015;-54
2022/12/01 08:18:30;;;;;;;28.33;21.60;;;28.10;99.90;;;;;;5099076;28;20028;-59
2022/12/01 08:20:58;;;;;;;23.73;18.58;;;27.90;99.90;;;;;;5102477;28;20027;-59
2022/12/01 08:23:24;;;;;;;25.38;18.33;;;27.70;99.90;;;;;;5103779;28;20382;-60
2022/12/01 08:25:53;;;;;;;31.10;19.50;;;27.70;99.90;;;;;;5100491;28;20114;-60
2022/12/01 08:28:20;;;;;;;25.58;17.15;;;27.90;99.90;;;;;;5107232;28;20351;-59
2022/12/01 08:30:47;;;;;;;23.25;17.75;;;27.90;99.90;;;;;;5106172;28;20028;-58
2022/12/01 08:33:13;;;;;;;18.65;14.75;;;27.80;99.90;;;;;;5106670;28;20024;-61
2022/12/01 08:35:40;;;;;;;18.83;12.52;;;27.60;99.90;;;;;;5106487;28;20055;-60
2022/12/01 08:38:08;;;;;;;19.17;13.60;;;27.40;99.90;;;;;;5105852;28;20472;-60
2022/12/01 08:40:34;;;;;;;18.75;12.90;;;27.20;99.90;;;;;;5106434;28;20027;-56
2022/12/01 08:43:01;;;;;;;17.75;12.00;;;27.10;99.90;;;;;;5106218;28;20020;-59
2022/12/01 08:45:27;;;;;;;19.48;11.77;;;27.00;99.90;;;;;;5099433;28;20027;-60
2022/12/01 08:47:57;;;;;;;17.05;11.18;;;26.90;99.90;;;;;;5096620;28;20008;-60
2022/12/01 08:52:55;;;;;;;20.98;10.65;;;26.90;99.90;;;;;;5095890;28;20035;-60
2022/12/01 08:55:22;;;;;;;16.65;11.07;;;27.00;99.90;;;;;;5103105;28;20027;-61
2022/12/01 09:00:18;;;;;;;16.63;12.15;;;27.10;99.90;;;;;;5103643;28;20095;-60
2022/12/01 09:02:44;;;;;;;16.50;10.90;;;27.30;99.90;;;;;;5101040;28;20127;-60
2022/12/01 09:05:11;;;;;;;14.40;11.05;;;27.10;99.90;;;;;;5102480;28;20023;-59
2022/12/01 09:07:38;;;;;;;16.25;12.95;;;27.20;99.90;;;;;;5106195;28;20500;-58
2022/12/01 09:10:05;;;;;;;32.45;21.17;;;27.20;99.90;;;;;;5106924;28;20402;-56
2022/12/01 09:12:31;;;;;;;52.72;30.98;;;27.30;99.90;;;;;;5102393;28;20070;-59
2022/12/01 09:14:58;;;;;;;24.15;15.95;;;27.30;99.90;;;;;;5106969;28;20019;-60
2022/12/01 09:17:24;;;;;;;19.92;15.02;;;27.40;99.90;;;;;;5106477;28;20050;-60
2022/12/01 09:19:51;;;;;;;20.15;14.55;;;27.40;99.90;;;;;;5102150;28;20354;-60
2022/12/01 09:22:18;;;;;;;29.10;15.05;;;27.60;99.90;;;;;;5106282;28;20499;-60
2022/12/01 09:24:44;;;;;;;19.35;14.73;;;27.70;99.90;;;;;;5104041;28;20035;-61
2022/12/01 09:27:12;;;;;;;21.95;16.30;;;27.80;99.90;;;;;;5104490;28;20027;-60
2022/12/01 09:29:38;;;;;;;24.20;15.95;;;27.70;99.90;;;;;;5097111;28;20116;-60
2022/12/01 09:32:05;;;;;;;19.42;14.38;;;27.60;99.90;;;;;;5097067;28;20032;-59
2022/12/01 09:34:31;;;;;;;23.27;15.48;;;27.70;99.90;;;;;;5097109;28;20024;-61
2022/12/01 09:36:58;;;;;;;25.35;17.13;;;27.80;99.90;;;;;;5096665;28;20034;-60
2022/12/01 09:39:25;;;;;;;29.45;16.88;;;28.00;99.90;;;;;;5096638;28;20059;-60
2022/12/01 09:41:56;;;;;;;23.02;17.75;;;27.90;99.90;;;;;;5096722;28;20034;-61
2022/12/01 09:44:26;;;;;;;28.52;17.10;;;27.80;99.90;;;;;;5096750;28;20074;-60
2022/12/01 09:46:57;;;;;;;28.73;17.27;;;27.80;99.90;;;;;;5096707;28;20028;-59
2022/12/01 09:49:48;;;;;;;32.83;19.42;;;28.00;99.90;;;;;;5096744;28;20024;-61
2022/12/01 09:52:18;;;;;;;23.13;16.40;;;28.00;99.90;;;;;;5095866;28;20032;-60
2022/12/01 09:54:47;;;;;;;28.60;17.15;;;27.90;99.90;;;;;;5095624;28;20038;-60
2022/12/01 09:57:28;;;;;;;27.23;19.15;;;27.90;99.90;;;;;;5096433;28;20032;-59
2022/12/01 09:59:56;;;;;;;34.13;19.92;;;27.80;99.90;;;;;;5096419;28;20035;-61
2022/12/01 10:02:32;;;;;;;32.40;22.05;;;27.80;99.90;;;;;;5096309;28;20035;-60
2022/12/01 10:05:02;;;;;;;31.52;20.58;;;27.80;99.90;;;;;;5096345;28;20481;-58
2022/12/01 10:07:37;;;;;;;29.25;20.00;;;27.80;99.90;;;;;;5096138;28;20389;-63
2022/12/01 10:10:13;;;;;;;33.88;20.95;;;27.70;99.90;;;;;;5096168;28;20070;-61
2022/12/01 10:12:43;;;;;;;31.30;21.33;;;27.70;99.90;;;;;;5096052;28;20028;-63
2022/12/01 10:15:12;;;;;;;28.08;21.58;;;27.70;99.90;;;;;;5095837;28;20020;-55
2022/12/01 10:17:47;;;;;;;34.70;22.23;;;27.70;99.90;;;;;;5095858;28;20077;-58
2022/12/01 10:20:21;;;;;;;38.22;25.60;;;27.60;99.90;;;;;;5095810;28;20026;-61
2022/12/01 10:22:57;;;;;;;35.80;21.60;;;27.60;99.90;;;;;;5095578;28;20431;-61
2022/12/01 10:25:26;;;;;;;34.83;21.83;;;27.50;99.90;;;;;;5095617;28;20477;-61
2022/12/01 10:28:04;;;;;;;29.65;21.23;;;27.60;99.90;;;;;;5095596;28;20032;-61
2022/12/01 10:30:37;;;;;;;37.22;23.63;;;27.60;99.90;;;;;;5094820;28;20089;-61
2022/12/01 10:33:25;;;;;;;44.03;27.20;;;27.50;99.90;;;;;;5095412;28;20038;-61
2022/12/01 10:35:53;;;;;;;40.45;25.60;;;27.50;99.90;;;;;;5094269;28;20077;-60
2022/12/01 10:38:31;;;;;;;32.50;27.30;;;27.50;99.90;;;;;;5095648;28;20016;-59
2022/12/01 10:41:00;;;;;;;36.33;23.48;;;27.50;99.90;;;;;;5095187;28;20072;-58
2022/12/01 10:43:39;;;;;;;36.28;24.73;;;27.50;99.90;;;;;;5095119;28;20024;-58
2022/12/01 10:46:14;;;;;;;35.47;26.58;;;27.50;99.90;;;;;;5103092;28;20035;-60
2022/12/01 10:49:06;;;;;;;49.78;31.40;;;27.60;99.90;;;;;;5103048;28;20453;-60
2022/12/01 10:51:46;;;;;;;45.08;29.88;;;27.60;99.90;;;;;;5105685;28;20039;-61
2022/12/01 10:54:13;;;;;;;34.05;24.27;;;27.70;99.90;;;;;;5105971;28;20055;-61
2022/12/01 10:56:42;;;;;;;34.50;23.25;;;27.50;99.90;;;;;;5101946;28;20156;-60
2022/12/01 10:59:31;;;;;;;32.08;19.75;;;27.40;99.90;;;;;;5114516;28;20035;-61
2022/12/01 11:02:00;;;;;;;30.67;21.33;;;27.40;99.90;;;;;;5088866;28;20454;-59
2022/12/01 11:04:55;;;;;;;29.95;21.92;;;27.50;99.90;;;;;;5103743;28;20023;-60
2022/12/01 11:07:44;;;;;;;34.70;23.23;;;27.60;99.90;;;;;;5012326;28;20061;-60
2022/12/01 11:18:02;;;;;;;34.90;22.67;;;27.30;99.90;;;;;;5957369;22;20056;-67
2022/12/01 11:20:28;;;;;;;;;;;27.40;99.90;;;;;;5063468;28;20372;-67
2022/12/01 11:23:00;;;;;;;38.00;27.25;;;27.40;99.90;;;;;;5065395;28;19909;-68
2022/12/01 11:25:26;;;;;;;48.60;28.52;;;27.50;99.90;;;;;;5062032;28;20060;-67
2022/12/01 11:27:56;;;;;;;39.95;27.15;;;27.50;99.90;;;;;;5063077;28;20071;-66
2022/12/01 11:30:25;;;;;;;46.50;27.77;;;27.50;99.90;;;;;;5064195;28;20024;-67
2022/12/01 11:32:59;;;;;;;48.13;30.48;;;27.40;99.90;;;;;;5064421;28;20029;-67
2022/12/01 11:35:31;;;;;;;54.55;33.80;;;27.40;99.90;;;;;;5063096;28;20048;-67
2022/12/01 11:38:01;;;;;;;61.03;39.30;;;27.40;99.90;;;;;;5067891;28;20495;-66
2022/12/01 11:40:50;;;;;;;69.25;39.67;;;27.60;99.90;;;;;;5065020;28;20032;-67
2022/12/01 11:43:38;;;;;;;54.58;39.03;;;27.70;99.90;;;;;;5061935;28;20079;-68
2022/12/01 11:46:08;;;;;;;51.45;34.88;;;27.60;99.90;;;;;;5050037;28;20037;-68
2022/12/01 11:48:35;;;;;;;50.17;32.85;;;27.50;99.90;;;;;;5053528;28;20424;-68
2022/12/01 11:51:05;;;;;;;47.83;31.23;;;27.40;99.90;;;;;;5053646;28;20448;-68
2022/12/01 11:53:34;;;;;;;42.15;28.48;;;27.40;99.90;;;;;;5053504;28;20024;-67
2022/12/01 11:56:06;;;;;;;44.15;28.88;;;27.40;99.90;;;;;;5053727;28;20025;-70
2022/12/01 11:58:32;;;;;;;38.00;25.00;;;27.30;99.90;;;;;;5053725;28;20469;-71
2022/12/01 12:00:59;;;;;;;35.72;23.27;;;27.30;99.90;;;;;;5053463;28;20033;-71
2022/12/01 12:03:30;;;;;;;35.72;23.88;;;27.40;99.90;;;;;;5053563;28;20017;-71
2022/12/01 12:05:59;;;;;;;34.33;24.07;;;27.50;99.90;;;;;;5053538;28;20017;-70
2022/12/01 12:08:29;;;;;;;35.78;22.83;;;27.60;99.90;;;;;;5053593;28;20024;-70
2022/12/01 12:10:58;;;;;;;31.08;20.58;;;27.50;99.90;;;;;;5053610;28;20111;-71
2022/12/01 12:13:45;;;;;;;28.83;19.52;;;27.50;99.90;;;;;;5053348;28;20044;-70
2022/12/01 12:16:14;;;;;;;34.80;22.42;;;27.50;99.90;;;;;;5036814;28;20171;-70
2022/12/01 12:18:46;;;;;;;36.45;23.08;;;27.40;99.90;;;;;;5042225;28;20489;-72
2022/12/01 12:21:21;;;;;;;30.40;21.08;;;27.60;99.90;;;;;;5033478;28;20030;-72
2022/12/01 12:23:53;;;;;;;47.95;30.95;;;27.70;99.90;;;;;;5033747;28;20405;-71
2022/12/01 12:26:21;;;;;;;45.15;27.67;;;27.90;99.90;;;;;;5033473;28;20022;-71
2022/12/01 12:28:50;;;;;;;45.22;30.63;;;27.90;99.90;;;;;;5033430;28;20025;-71
2022/12/01 12:31:28;;;;;;;77.55;53.50;;;27.90;99.90;;;;;;5033217;28;20079;-70
2022/12/01 12:33:57;;;;;;;49.50;33.67;;;27.90;99.90;;;;;;5033434;28;20030;-68
2022/12/01 12:36:29;;;;;;;40.63;29.90;;;27.80;99.90;;;;;;5033449;28;20025;-67
2022/12/01 12:39:03;;;;;;;33.70;24.08;;;27.70;99.90;;;;;;5037139;28;20516;-68
2022/12/01 12:41:35;;;;;;;32.13;21.60;;;27.60;99.90;;;;;;5037306;28;20153;-67
2022/12/01 12:44:05;;;;;;;30.70;21.20;;;27.60;99.90;;;;;;5037180;28;20049;-68
2022/12/01 12:46:40;;;;;;;34.03;23.33;;;27.60;99.90;;;;;;5044624;28;20052;-68
2022/12/01 12:49:09;;;;;;;38.10;23.77;;;27.80;99.90;;;;;;5046847;28;20631;-67
2022/12/01 12:51:40;;;;;;;33.22;22.95;;;27.80;99.90;;;;;;5051266;28;20100;-67
2022/12/01 12:54:16;;;;;;;39.17;24.75;;;27.70;99.90;;;;;;5047382;28;20029;-67
2022/12/01 12:56:48;;;;;;;36.90;26.38;;;27.80;99.90;;;;;;5046221;28;20022;-67
2022/12/01 12:59:24;;;;;;;45.33;27.80;;;27.80;99.90;;;;;;5057074;28;20401;-67
2022/12/01 13:02:03;;;;;;;37.30;24.90;;;27.80;99.90;;;;;;5056949;28;20021;-68
2022/12/01 13:07:39;;;;;;;42.55;27.35;;;27.80;99.90;;;;;;5054320;28;20017;-67